»·PEaware :: UAL1399 KSLC-KBOI

UAL1399 :: KSLC-KBOI

FLIGHT INFORMATION

Flight Status: Arrived
Operator:
United Airlines
More flights by this operator :: More flights under this callsign
Pilot: David C. (16084)
Aircraft: AIRBUS A320
(A320)
More flights by this aircraft type
Origin: KSLC Salt Lake City Intl
United States
Destination: KBOI Boise Air Terminal/Gowen
United States
More flights between these airports :: More routes between these airports
Route: +CGULL1 TWF BROPH SPUUD3
File this flight plan on PilotEdge
Remarks:
Altitude:
(Current/Filed)
29,000ft
Speed:
(Current/Filed)
484kts
Departed: 08-Aug-18 11:36 AM
Arrived: 08-Aug-18 12:23 PM
Distance/Time
Traveled:
252nm/0:46
Distance/Time
To Go:
Arrived

Flight Plot

Page will automatically refresh every two minutes.

Flight plan parsing failed; only flown route is shown


Map Options




Map Legend


Flown Route
Filed Route
Departure Airport
Arrival Airport
Navaid (VOR, NDB)
Fix

Horizontal Profiles

Position Reports

Time Latitude Longitude Heading Altitude Ground
Speed
08-Aug-18 11:05 40.786745 -111.978273 313 4236ft 0kts
08-Aug-18 11:06 40.786745 -111.978273 313 4236ft 0kts
08-Aug-18 11:07 40.786745 -111.978273 313 4236ft 0kts
08-Aug-18 11:08 40.786745 -111.978273 313 4236ft 0kts
08-Aug-18 11:09 40.786745 -111.978273 313 4236ft 0kts
08-Aug-18 11:10 40.786745 -111.978273 313 4236ft 0kts
08-Aug-18 11:11 40.786745 -111.978273 313 4236ft 0kts
08-Aug-18 11:12 40.786745 -111.978273 313 4236ft 0kts
08-Aug-18 11:13 40.786745 -111.978273 313 4236ft 0kts
08-Aug-18 11:14 40.786745 -111.978273 313 4236ft 0kts
08-Aug-18 11:15 40.786745 -111.978273 313 4236ft 0kts
08-Aug-18 11:16 40.786745 -111.978273 313 4236ft 0kts
08-Aug-18 11:17 40.786745 -111.978273 313 4236ft 0kts
08-Aug-18 11:18 40.786745 -111.978273 313 4236ft 0kts
08-Aug-18 11:19 40.786701 -111.978226 341 4236ft 2kts
08-Aug-18 11:20 40.786271 -111.977753 341 4236ft 2kts
08-Aug-18 11:21 40.786033 -111.977740 10 4236ft 0kts
08-Aug-18 11:22 40.786033 -111.977740 10 4236ft 0kts
08-Aug-18 11:23 40.786033 -111.977740 10 4236ft 0kts
08-Aug-18 11:24 40.786033 -111.977740 10 4236ft 0kts
08-Aug-18 11:25 40.786033 -111.977740 10 4236ft 0kts
08-Aug-18 11:26 40.786033 -111.977740 10 4236ft 0kts
08-Aug-18 11:27 40.786033 -111.977740 10 4236ft 0kts
08-Aug-18 11:28 40.786033 -111.977740 10 4236ft 0kts
08-Aug-18 11:29 40.786033 -111.977740 10 4236ft 0kts
08-Aug-18 11:30 40.786033 -111.977740 10 4236ft 0kts
08-Aug-18 11:31 40.788555 -111.976922 354 4236ft 21kts
08-Aug-18 11:32 40.796312 -111.977851 352 4236ft 29kts
08-Aug-18 11:33 40.804185 -111.978304 1 4236ft 23kts
08-Aug-18 11:34 40.807083 -111.978465 16 4236ft 0kts
08-Aug-18 11:35 40.807083 -111.978465 16 4236ft 0kts
08-Aug-18 11:36 40.807309 -111.978301 42 4236ft 7kts
08-Aug-18 11:37 40.803669 -111.976466 173 4236ft 59kts
08-Aug-18 11:38 40.759996 -111.971800 182 5543ft 194kts
08-Aug-18 11:39 40.743814 -112.032784 308 7756ft 229kts
08-Aug-18 11:40 40.788707 -112.099638 312 10080ft 273kts
08-Aug-18 11:41 40.845071 -112.177043 320 12787ft 303kts
08-Aug-18 11:42 40.912754 -112.250441 320 15412ft 325kts
08-Aug-18 11:43 40.985216 -112.331012 319 17336ft 358kts
08-Aug-18 11:44 41.062497 -112.417482 320 19582ft 371kts
08-Aug-18 11:45 41.147222 -112.490881 326 21595ft 382kts
08-Aug-18 11:46 41.233662 -112.574860 321 23560ft 389kts
08-Aug-18 11:47 41.313556 -112.671788 311 25306ft 396kts
08-Aug-18 11:48 41.388207 -112.780980 312 26895ft 404kts
08-Aug-18 11:49 41.463043 -112.894360 311 28226ft 413kts
08-Aug-18 11:50 41.541611 -113.014838 311 28267ft 450kts
08-Aug-18 11:51 41.625337 -113.143764 311 28259ft 464kts
08-Aug-18 11:52 41.695526 -113.252308 311 28251ft 464kts
08-Aug-18 11:53 41.793701 -113.404719 311 28248ft 463kts
08-Aug-18 11:54 41.877387 -113.535241 311 28246ft 463kts
08-Aug-18 11:55 41.947219 -113.644594 311 28247ft 463kts
08-Aug-18 11:56 42.044561 -113.797700 310 28251ft 464kts
08-Aug-18 11:57 42.113486 -113.906586 310 28253ft 464kts
08-Aug-18 11:58 42.196979 -114.038834 310 28256ft 464kts
08-Aug-18 11:59 42.280340 -114.170902 310 28259ft 464kts
08-Aug-18 12:00 42.363657 -114.303539 310 28258ft 464kts
08-Aug-18 12:01 42.447002 -114.436820 310 28256ft 464kts
08-Aug-18 12:02 42.530266 -114.569849 311 28256ft 464kts
08-Aug-18 12:03 42.613226 -114.702387 310 28256ft 464kts
08-Aug-18 12:04 42.696451 -114.835995 310 27976ft 463kts
08-Aug-18 12:05 42.783237 -114.964666 313 25866ft 464kts
08-Aug-18 12:06 42.871393 -115.091482 313 22821ft 457kts
08-Aug-18 12:07 42.956923 -115.215221 314 20098ft 442kts
08-Aug-18 12:08 43.038863 -115.334427 313 17419ft 427kts
08-Aug-18 12:09 43.115229 -115.446003 313 15892ft 387kts
08-Aug-18 12:10 43.184489 -115.547457 313 15145ft 337kts
08-Aug-18 12:11 43.244550 -115.635523 313 14317ft 303kts
08-Aug-18 12:12 43.292169 -115.727458 297 12888ft 295kts
08-Aug-18 12:13 43.329133 -115.826311 297 11495ft 289kts
08-Aug-18 12:14 43.365244 -115.923249 297 10185ft 280kts
08-Aug-18 12:15 43.398520 -116.012889 297 8967ft 275kts
08-Aug-18 12:16 43.432739 -116.105374 297 7752ft 268kts
08-Aug-18 12:17 43.465427 -116.194041 296 7050ft 243kts
08-Aug-18 12:18 43.492015 -116.271907 295 7017ft 216kts
08-Aug-18 12:19 43.516525 -116.343810 295 6088ft 194kts
08-Aug-18 12:20 43.558624 -116.379947 8 5137ft 190kts
08-Aug-18 12:21 43.592848 -116.336124 79 4236ft 165kts
08-Aug-18 12:22 43.581493 -116.277788 114 3387ft 148kts
08-Aug-18 12:23 43.564765 -116.227163 115 2880ft 114kts
08-Aug-18 12:24 43.560713 -116.212326 22 2880ft 6kts
08-Aug-18 12:25 43.560807 -116.212273 22 2880ft 4kts
08-Aug-18 12:26 43.563540 -116.213873 294 2880ft 16kts
08-Aug-18 12:27 43.567390 -116.217560 354 2880ft 17kts
08-Aug-18 12:28 43.567656 -116.219112 206 2880ft 0kts

Navigation Log

Ident Type
Flight plan parsing failed, navigation log unavailable